Time;durP1;ratioP1;P1;durP2;ratioP2;P2;SDS_P1;SDS_P2;PMS_P1;PMS_P2;Temp;Humidity;BMP_temperature;BMP_pressure;BME280_temperature;BME280_humidity;BME280_pressure;Samples;Min_cycle;Max_cycle;Signal;HPM_P1;HPM_P2
2022/09/13 04:01:18;;;;;;;5.82;3.80;;;;;;;9.88;100.00;100274.41;6657805;26;20075;31
2022/09/13 04:04:25;;;;;;;4.32;3.42;;;;;;;9.86;100.00;100277.28;6585923;26;34260;-89
2022/09/13 04:07:28;;;;;;;3.42;3.10;;;;;;;9.88;100.00;100277.91;6585409;27;34987;-89
2022/09/13 04:10:32;;;;;;;3.87;3.37;;;;;;;9.89;100.00;100276.09;6580238;27;33982;-89
2022/09/13 04:13:35;;;;;;;4.78;3.30;;;;;;;9.94;100.00;100276.38;6595583;26;34326;-87
2022/09/13 04:16:38;;;;;;;3.92;3.53;;;;;;;9.97;100.00;100278.72;6656031;26;33636;-87
2022/09/13 04:19:43;;;;;;;3.97;3.35;;;;;;;9.95;100.00;100270.84;6653892;26;34554;-87
2022/09/13 04:22:54;;;;;;;4.57;3.47;;;;;;;9.94;100.00;100279.91;6663502;26;34725;-89
2022/09/13 04:26:02;;;;;;;5.57;3.87;;;;;;;9.96;100.00;100272.50;6656872;26;34869;-89
2022/09/13 04:29:04;;;;;;;4.90;3.45;;;;;;;9.96;100.00;100277.03;6662901;26;33937;-89
2022/09/13 04:32:08;;;;;;;4.57;3.60;;;;;;;9.97;100.00;100276.03;6662005;26;34138;-87
2022/09/13 04:35:11;;;;;;;5.95;3.53;;;;;;;10.01;100.00;100268.47;6663025;26;33789;-87
2022/09/13 04:38:13;;;;;;;7.68;3.67;;;;;;;10.03;100.00;100272.62;6658525;26;33926;-89
2022/09/13 04:41:18;;;;;;;5.18;3.70;;;;;;;10.04;100.00;100279.69;6662966;26;34732;-89
2022/09/13 04:44:23;;;;;;;6.97;3.90;;;;;;;10.07;100.00;100275.81;6656115;26;34138;-87
2022/09/13 04:47:26;;;;;;;7.45;3.58;;;;;;;10.12;100.00;100266.22;6661934;26;35029;-87
2022/09/13 04:50:29;;;;;;;3.50;3.20;;;;;;;10.18;100.00;100278.94;6655172;26;33743;-87
2022/09/13 04:53:32;;;;;;;8.15;3.60;;;;;;;10.19;100.00;100275.22;6662400;26;33677;-87
2022/09/13 04:56:35;;;;;;;6.85;3.42;;;;;;;10.23;100.00;100270.31;6662462;26;33983;-87
2022/09/13 04:59:38;;;;;;;4.43;3.47;;;;;;;10.29;100.00;100272.31;6657260;26;34141;-87
2022/09/13 05:02:41;;;;;;;5.78;3.35;;;;;;;10.35;100.00;100284.22;6664263;26;34985;-87
2022/09/13 05:05:43;;;;;;;5.07;3.20;;;;;;;10.36;99.35;100294.00;6665535;26;33930;-87
2022/09/13 05:08:53;;;;;;;4.82;3.15;;;;;;;10.39;99.37;100290.94;6663447;26;34403;-88
2022/09/13 05:11:56;;;;;;;3.37;3.08;;;;;;;10.47;100.00;100293.59;6660482;26;34449;-86
2022/09/13 05:15:01;;;;;;;3.05;2.83;;;;;;;10.55;97.88;100293.50;6639959;26;33164;-86
2022/09/13 05:18:04;;;;;;;3.78;2.90;;;;;;;10.65;97.29;100293.28;6662445;26;34078;-85
2022/09/13 05:21:07;;;;;;;3.30;3.00;;;;;;;10.83;94.27;100296.50;6665216;26;33993;-86
2022/09/13 05:24:10;;;;;;;3.83;3.30;;;;;;;11.01;91.98;100289.94;6667955;26;34067;-86
2022/09/13 05:27:13;;;;;;;3.47;3.17;;;;;;;11.08;92.87;100294.41;6665512;26;34114;-86
2022/09/13 05:30:16;;;;;;;4.57;3.50;;;;;;;11.18;92.90;100296.84;6664166;26;34869;-86
2022/09/13 05:33:18;;;;;;;4.70;3.37;;;;;;;11.32;91.14;100305.97;6663415;26;34538;-86
2022/09/13 05:36:21;;;;;;;5.50;3.08;;;;;;;11.45;89.20;100300.75;6649349;26;32970;-87
2022/09/13 05:39:24;;;;;;;5.93;3.80;;;;;;;11.65;88.64;100301.06;6669325;26;35696;-89
2022/09/13 05:42:45;;;;;;;5.90;3.58;;;;;;;11.78;88.52;100300.38;6679238;26;34851;-87
2022/09/13 05:45:48;;;;;;;4.25;3.50;;;;;;;11.92;89.31;100298.72;6677322;26;34462;-87
2022/09/13 05:48:51;;;;;;;4.37;3.55;;;;;;;11.98;90.08;100292.56;6665495;26;36315;-87
2022/09/13 05:51:53;;;;;;;7.32;4.57;;;;;;;12.09;88.72;100291.25;6663095;26;34361;-86
2022/09/13 05:54:56;;;;;;;8.32;4.97;;;;;;;12.21;87.39;100285.16;6643718;26;32596;-86
2022/09/13 05:58:01;;;;;;;4.95;4.43;;;;;;;12.25;87.39;100289.16;6662771;26;34444;-86
2022/09/13 06:01:04;;;;;;;10.70;5.05;;;;;;;12.35;87.53;100288.84;6663311;26;34020;-87
2022/09/13 06:04:08;;;;;;;8.60;5.22;;;;;;;12.52;86.55;100302.09;6662369;26;34178;-87
2022/09/13 06:07:11;;;;;;;6.80;4.68;;;;;;;12.63;86.33;100296.16;6659792;26;33777;-86
2022/09/13 06:10:14;;;;;;;7.78;4.60;;;;;;;12.85;84.42;100303.25;6660197;26;34726;-87
2022/09/13 06:13:16;;;;;;;7.70;4.80;;;;;;;12.97;83.49;100306.25;6662911;26;33858;-87
2022/09/13 06:16:20;;;;;;;6.05;4.60;;;;;;;13.17;83.12;100306.41;6663195;26;34290;-86
2022/09/13 06:19:23;;;;;;;5.82;4.35;;;;;;;13.35;81.46;100305.94;6663645;26;35349;-86
2022/09/13 06:22:31;;;;;;;4.62;4.07;;;;;;;13.52;81.91;100298.37;6642321;26;33742;-87
2022/09/13 06:25:34;;;;;;;6.37;4.45;;;;;;;13.55;81.27;100298.78;6662150;26;34638;-87
2022/09/13 06:28:38;;;;;;;9.30;4.43;;;;;;;13.64;79.42;100306.75;6661457;26;34332;-87
2022/09/13 06:31:43;;;;;;;7.68;4.65;;;;;;;13.75;78.38;100315.16;6641486;26;32931;-86
2022/09/13 06:34:47;;;;;;;6.37;4.60;;;;;;;13.89;76.94;100307.91;6641558;26;32369;-86
2022/09/13 06:37:50;;;;;;;7.68;4.70;;;;;;;13.96;76.25;100302.53;6663117;26;34887;-87
2022/09/13 06:41:21;;;;;;;8.65;4.25;;;;;;;14.08;74.99;100303.62;6645378;26;32651;-86
2022/09/13 06:44:24;;;;;;;8.43;5.40;;;;;;;14.32;74.62;100310.38;6661425;26;34483;-87
2022/09/13 06:47:27;;;;;;;6.18;4.55;;;;;;;14.45;74.56;100310.41;6642281;26;32326;-87
2022/09/13 06:50:30;;;;;;;5.55;4.93;;;;;;;14.64;72.76;100297.97;6662612;26;35618;-87
2022/09/13 06:53:35;;;;;;;7.78;5.12;;;;;;;14.82;74.20;100291.94;6663343;26;34602;-87
2022/09/13 06:56:37;;;;;;;7.25;5.50;;;;;;;15.05;71.66;100296.12;6661979;26;33896;-86
2022/09/13 06:59:40;;;;;;;9.45;5.22;;;;;;;15.11;71.34;100297.97;6641923;26;33660;-87
2022/09/13 07:02:43;;;;;;;6.65;4.70;;;;;;;15.11;71.95;100296.09;6642282;26;32909;-87
2022/09/13 07:05:46;;;;;;;6.43;4.95;;;;;;;15.30;70.65;100299.03;6662636;26;33964;-87
2022/09/13 07:08:50;;;;;;;9.20;5.20;;;;;;;15.40;67.27;100302.94;6662870;26;34757;-87
2022/09/13 07:11:55;;;;;;;6.43;4.70;;;;;;;15.49;67.97;100302.75;6663626;26;33805;-87
2022/09/13 07:14:57;;;;;;;6.55;5.40;;;;;;;15.76;67.40;100303.53;6661938;26;34843;-87
2022/09/13 07:18:00;;;;;;;9.95;4.90;;;;;;;15.91;66.12;100304.09;6662330;26;34761;-90
2022/09/13 07:21:05;;;;;;;9.10;5.30;;;;;;;16.01;64.82;100303.66;6661968;26;34009;-91
2022/09/13 07:24:09;;;;;;;5.65;4.70;;;;;;;16.19;64.53;100301.06;6641577;26;32298;-91
2022/09/13 07:27:13;;;;;;;8.27;5.15;;;;;;;16.49;61.94;100300.47;6663253;26;34144;-87
2022/09/13 07:30:16;;;;;;;6.53;4.20;;;;;;;16.57;62.71;100302.09;6661078;26;34282;-86
2022/09/13 07:33:19;;;;;;;6.35;4.45;;;;;;;16.72;61.24;100299.91;6663526;26;34815;-86
2022/09/13 07:36:23;;;;;;;3.95;3.55;;;;;;;16.94;61.18;100295.78;6640639;26;32809;-86
2022/09/13 07:39:26;;;;;;;6.40;3.15;;;;;;;17.14;56.43;100302.94;6656514;26;126694;-86
2022/09/13 07:42:29;;;;;;;3.12;2.65;;;;;;;17.29;53.76;100300.72;6661597;26;33976;-86
2022/09/13 07:45:33;;;;;;;4.18;2.60;;;;;;;17.38;52.68;100301.28;6660547;26;33554;-86
2022/09/13 07:48:38;;;;;;;3.60;2.35;;;;;;;17.42;51.53;100300.59;6663054;26;34063;-86
2022/09/13 07:51:42;;;;;;;3.97;2.33;;;;;;;17.54;51.80;100302.56;6644900;26;32672;-86
2022/09/13 07:54:46;;;;;;;5.00;2.95;;;;;;;17.67;51.99;100307.87;6662083;26;35188;-86
2022/09/13 07:57:49;;;;;;;4.18;2.62;;;;;;;17.84;52.05;100313.56;6661598;26;33971;-86
2022/09/13 08:00:51;;;;;;;5.87;2.80;;;;;;;17.96;50.82;100310.91;6663731;26;35360;-86
2022/09/13 08:04:06;;;;;;;5.95;2.33;;;;;;;18.03;50.83;100308.97;6662513;26;34863;-85
2022/09/13 08:07:09;;;;;;;4.50;2.35;;;;;;;18.21;49.21;100299.91;6661376;26;34059;-86
2022/09/13 08:10:12;;;;;;;2.40;2.20;;;;;;;18.25;49.45;100299.25;6661512;26;34036;-86
2022/09/13 08:13:16;;;;;;;5.65;2.22;;;;;;;18.25;48.33;100293.78;6661256;26;33751;-86
2022/09/13 08:16:21;;;;;;;3.55;2.40;;;;;;;18.43;49.35;100300.22;6640624;26;32997;-86
2022/09/13 08:19:24;;;;;;;4.93;2.45;;;;;;;18.47;47.27;100296.81;6661609;26;33516;-86
2022/09/13 08:22:27;;;;;;;4.60;2.53;;;;;;;18.53;48.74;100297.78;6660353;26;34537;-86
2022/09/13 08:25:40;;;;;;;3.92;2.42;;;;;;;18.84;47.08;100304.06;6660950;26;34018;-86
2022/09/13 08:28:43;;;;;;;5.37;2.65;;;;;;;18.84;47.64;100304.06;6640557;26;32673;-86
2022/09/13 08:31:46;;;;;;;5.43;2.50;;;;;;;18.89;48.53;100298.75;6660873;26;34333;-86
2022/09/13 08:34:49;;;;;;;6.12;2.90;;;;;;;19.05;46.32;100294.50;6660559;26;34036;-86
2022/09/13 08:37:51;;;;;;;4.20;2.55;;;;;;;19.04;47.59;100293.66;6641501;26;33751;-86
2022/09/13 08:41:03;;;;;;;3.87;2.55;;;;;;;19.16;47.49;100286.34;6664444;26;34845;-86
2022/09/13 08:44:22;;;;;;;3.90;2.47;;;;;;;19.46;47.01;100277.19;6660630;26;34850;-86
2022/09/13 08:47:34;;;;;;;4.07;2.60;;;;;;;19.40;46.53;100278.97;6639785;26;33659;-86
2022/09/13 08:50:37;;;;;;;7.15;2.67;;;;;;;19.32;46.84;100284.78;6639188;26;32426;-86
2022/09/13 08:53:47;;;;;;;4.18;3.25;;;;;;;19.44;47.14;100288.31;6660114;26;34276;-86
2022/09/13 08:57:31;;;;;;;5.93;3.00;;;;;;;19.38;47.55;100288.47;6660716;26;34146;-86
2022/09/13 09:00:39;;;;;;;2.50;2.30;;;;;;;19.25;48.43;100282.19;6662109;26;33522;-86
2022/09/13 09:04:06;;;;;;;4.93;2.47;;;;;;;19.67;47.85;100284.78;6641435;26;33272;-85
2022/09/13 09:07:39;;;;;;;5.68;2.35;;;;;;;19.70;46.31;100278.81;6597942;26;32473;-86
2022/09/13 09:10:47;;;;;;;5.35;2.72;;;;;;;19.92;46.40;100280.94;6642559;26;32117;-86
2022/09/13 09:14:00;;;;;;;4.12;2.12;;;;;;;20.02;48.03;100277.56;6642648;26;33498;-86
2022/09/13 09:17:13;;;;;;;6.55;2.37;;;;;;;20.21;45.97;100287.25;6661348;26;34055;-86
2022/09/13 09:20:24;;;;;;;1.90;1.70;;;;;;;20.46;46.16;100275.97;6662072;26;35219;-86
2022/09/13 09:23:37;;;;;;;2.87;2.12;;;;;;;20.55;45.51;100262.75;6661666;26;34291;-86
2022/09/13 09:26:40;;;;;;;3.42;2.30;;;;;;;20.41;44.09;100261.34;6661708;26;34394;-86
2022/09/13 09:29:46;;;;;;;6.78;2.47;;;;;;;20.15;45.16;100263.59;6641141;26;33597;-86
2022/09/13 09:33:01;;;;;;;2.50;2.20;;;;;;;20.10;45.33;100249.88;6661516;26;34589;-86
2022/09/13 09:36:12;;;;;;;2.20;2.00;;;;;;;20.27;45.41;100244.41;6662025;26;33847;-86
2022/09/13 09:39:15;;;;;;;3.12;2.20;;;;;;;20.37;44.69;100247.34;6661865;26;33952;-86
2022/09/13 09:42:23;;;;;;;3.85;2.00;;;;;;;20.53;45.65;100248.47;6641690;26;33531;-86
2022/09/13 09:45:32;;;;;;;5.50;2.10;;;;;;;20.82;44.45;100241.03;6677009;26;34273;-86
2022/09/13 09:48:43;;;;;;;3.15;2.40;;;;;;;21.02;43.07;100240.53;6657299;26;33503;-86
2022/09/13 09:51:46;;;;;;;2.83;2.20;;;;;;;21.06;42.46;100247.19;6660017;26;32406;-86
2022/09/13 09:54:49;;;;;;;2.30;2.08;;;;;;;21.07;44.26;100237.88;6641089;26;32882;-86
2022/09/13 09:57:53;;;;;;;2.87;1.73;;;;;;;21.10;43.18;100231.09;6662230;26;34939;-86
2022/09/13 10:00:58;;;;;;;3.40;1.80;;;;;;;21.19;42.44;100226.84;6662761;26;34862;-86
2022/09/13 10:04:11;;;;;;;3.08;2.10;;;;;;;21.36;42.18;100221.31;6665737;26;33583;-86
2022/09/13 10:07:33;;;;;;;2.90;2.12;;;;;;;21.46;41.89;100216.81;6652297;26;32672;-86
2022/09/13 10:10:41;;;;;;;2.20;2.00;;;;;;;21.74;40.70;100204.84;6650006;26;32285;-86
2022/09/13 10:13:59;;;;;;;3.45;2.10;;;;;;;21.91;41.31;100207.53;6662170;26;35501;-86
2022/09/13 10:17:26;;;;;;;2.83;2.30;;;;;;;22.03;39.85;100206.56;6662025;26;34939;-86
2022/09/13 10:20:30;;;;;;;2.80;1.80;;;;;;;21.95;40.65;100189.47;6662139;26;34309;-91
2022/09/13 10:23:35;;;;;;;2.83;1.80;;;;;;;22.28;40.36;100201.34;6661440;26;34810;-87
2022/09/13 10:26:37;;;;;;;2.17;1.65;;;;;;;22.39;39.36;100192.13;6661837;26;33989;-87
2022/09/13 10:29:47;;;;;;;2.37;1.62;;;;;;;22.25;39.53;100184.59;6661697;26;34089;-86
2022/09/13 10:32:55;;;;;;;2.42;1.65;;;;;;;22.26;39.17;100189.81;6662735;26;33995;-87
2022/09/13 10:36:06;;;;;;;2.28;2.08;;;;;;;22.09;39.75;100189.91;6645475;26;32620;-86
2022/09/13 10:39:16;;;;;;;5.25;2.00;;;;;;;22.16;40.08;100179.53;6641380;26;33116;-86
2022/09/13 10:42:22;;;;;;;3.08;2.00;;;;;;;22.34;39.63;100177.53;6641748;26;32458;-86
2022/09/13 10:45:27;;;;;;;3.30;1.80;;;;;;;22.30;39.72;100174.50;6641690;26;32652;-86
2022/09/13 10:48:44;;;;;;;2.67;1.92;;;;;;;22.78;40.02;100172.66;6660548;26;33762;-86
2022/09/13 10:51:47;;;;;;;2.12;1.73;;;;;;;23.21;37.21;100169.97;6641118;26;33649;-86
2022/09/13 10:54:50;;;;;;;3.70;2.10;;;;;;;23.18;37.54;100168.56;6661596;26;35237;-86
2022/09/13 10:58:13;;;;;;;4.45;1.98;;;;;;;23.51;37.56;100172.84;6640278;26;33225;-86
2022/09/13 11:01:26;;;;;;;2.65;2.22;;;;;;;24.07;36.36;100169.44;6660607;26;34814;-87
2022/09/13 11:04:32;;;;;;;2.87;2.03;;;;;;;24.23;36.36;100167.56;6661637;26;35259;-86
2022/09/13 11:07:46;;;;;;;3.60;2.37;;;;;;;24.38;35.77;100170.31;6661342;26;33819;-84
2022/09/13 11:11:07;;;;;;;3.87;2.45;;;;;;;24.75;35.05;100161.00;6644087;26;33664;-84
2022/09/13 11:14:32;;;;;;;4.50;2.10;;;;;;;24.78;35.00;100162.37;6665483;26;33734;-88
2022/09/13 11:17:53;;;;;;;3.45;2.22;;;;;;;24.03;36.03;100154.59;6649250;26;32392;-85
2022/09/13 11:21:17;;;;;;;3.00;1.80;;;;;;;24.28;36.34;100150.22;6640028;26;33923;-84
2022/09/13 11:24:29;;;;;;;5.55;2.17;;;;;;;24.89;35.57;100147.44;6640697;26;33763;-84
2022/09/13 11:28:02;;;;;;;2.20;1.73;;;;;;;25.21;34.03;100147.12;6640857;26;32530;-84
2022/09/13 11:31:43;;;;;;;5.20;2.53;;;;;;;25.63;33.44;100140.34;6660897;26;33833;-84
2022/09/13 11:35:24;;;;;;;2.40;1.73;;;;;;;26.33;32.42;100142.13;6661309;26;34354;-84
2022/09/13 11:39:24;;;;;;;3.25;1.95;;;;;;;26.82;32.32;100125.41;6663373;26;33570;-85
2022/09/13 11:42:43;;;;;;;1.80;1.70;;;;;;;27.73;30.72;100124.56;6548461;27;35551;-85
2022/09/13 11:45:57;;;;;;;;;;;;;;;28.35;29.90;100118.94;6566434;26;34589;-85
2022/09/13 11:49:32;;;;;;;2.85;1.87;;;;;;;29.14;29.07;100116.97;6642118;26;33131;-85
2022/09/13 11:52:49;;;;;;;3.37;1.90;;;;;;;30.10;26.21;100106.84;6662517;26;34154;-85
2022/09/13 11:55:58;;;;;;;2.25;1.80;;;;;;;30.59;25.93;100098.66;6660864;26;35075;-85
2022/09/13 11:59:40;;;;;;;2.90;1.45;;;;;;;30.15;25.73;100103.91;6662522;26;34982;-88
2022/09/13 12:02:58;;;;;;;1.98;1.62;;;;;;;30.80;24.87;100101.72;6660256;26;34770;-85
2022/09/13 12:06:06;;;;;;;3.85;1.92;;;;;;;30.12;25.51;100098.16;6660797;26;33915;-85
2022/09/13 12:09:24;;;;;;;2.45;1.50;;;;;;;30.06;26.04;100097.47;6639260;26;32986;-85
2022/09/13 12:12:32;;;;;;;1.50;1.20;;;;;;;29.37;25.99;100105.97;6660117;26;33651;-85
2022/09/13 12:15:40;;;;;;;4.15;1.27;;;;;;;29.50;26.15;100105.13;6660314;26;34628;-85
2022/09/13 12:18:45;;;;;;;;;;;;;;;30.19;25.49;100104.94;6660833;26;34352;-85
2022/09/13 12:21:50;;;;;;;1.50;1.12;;;;;;;31.23;24.19;100090.75;6660784;26;34592;-85
2022/09/13 12:24:57;;;;;;;1.02;1.02;;;;;;;31.21;23.13;100089.44;6660226;26;34377;-85
2022/09/13 12:28:11;;;;;;;1.12;1.10;;;;;;;30.12;24.85;100089.84;6659977;26;34402;-85
2022/09/13 12:31:20;;;;;;;1.23;0.98;;;;;;;29.63;26.31;100092.38;6641538;26;33587;-85
2022/09/13 12:34:49;;;;;;;1.50;1.20;;;;;;;30.38;25.70;100090.84;6663004;26;33691;-85
2022/09/13 12:38:10;;;;;;;2.28;1.70;;;;;;;30.32;24.41;100082.97;6643245;26;33433;-89
2022/09/13 12:41:35;;;;;;;1.67;1.52;;;;;;;29.41;25.80;100083.97;6663171;26;33674;-86
2022/09/13 12:45:09;;;;;;;1.42;1.33;;;;;;;29.92;25.88;100074.50;6642488;26;33697;-85
2022/09/13 12:48:50;;;;;;;2.78;1.58;;;;;;;28.30;27.22;100081.09;6663466;26;33966;-85
2022/09/13 12:52:21;;;;;;;1.98;1.40;;;;;;;27.87;28.80;100063.81;6642573;26;32895;-85
2022/09/13 12:55:46;;;;;;;2.03;1.65;;;;;;;27.72;28.32;100071.19;6663423;26;33951;-85
2022/09/13 12:59:23;;;;;;;3.33;1.50;;;;;;;27.69;29.19;100082.03;6664129;26;34291;-89
2022/09/13 13:02:34;;;;;;;2.87;1.98;;;;;;;28.34;28.50;100073.00;6665441;26;33957;-85
2022/09/13 13:05:46;;;;;;;1.48;1.37;;;;;;;27.54;29.79;100070.06;6664991;26;34810;-85
2022/09/13 13:08:52;;;;;;;1.20;1.15;;;;;;;26.69;30.64;100068.09;6643538;26;32607;-85
2022/09/13 13:11:57;;;;;;;1.70;1.60;;;;;;;27.22;30.11;100062.50;6663779;26;33801;-85
2022/09/13 13:15:06;;;;;;;1.73;1.62;;;;;;;29.67;26.78;100060.09;6643581;26;32143;-85
2022/09/13 13:18:28;;;;;;;1.12;1.12;;;;;;;32.41;24.63;100068.41;6666548;26;34197;-85
2022/09/13 13:21:34;;;;;;;1.12;0.93;;;;;;;33.45;21.98;100057.94;6663897;26;34207;-85
2022/09/13 13:24:43;;;;;;;4.15;1.23;;;;;;;35.40;20.17;100046.44;6663941;26;34068;-85
2022/09/13 13:27:48;;;;;;;;;;;;;;;35.79;19.73;100041.19;6664245;26;34111;-85
2022/09/13 13:30:54;;;;;;;1.30;1.20;;;;;;;36.96;18.31;100047.53;6666110;26;34851;-85
2022/09/13 13:34:07;;;;;;;4.07;1.60;;;;;;;37.38;17.96;100046.91;6648365;26;32439;-85
2022/09/13 13:37:09;;;;;;;2.67;1.20;;;;;;;37.07;18.32;100030.97;6643369;26;33010;-86
2022/09/13 13:40:25;;;;;;;1.62;1.12;;;;;;;36.98;18.75;100033.94;6643083;26;33517;-85
2022/09/13 13:43:32;;;;;;;2.90;1.12;;;;;;;36.36;19.06;100032.75;6661541;26;33634;-85
2022/09/13 13:46:35;;;;;;;1.27;1.00;;;;;;;36.25;19.93;100033.31;6661533;26;34121;-89
2022/09/13 13:49:37;;;;;;;3.42;1.55;;;;;;;36.39;19.38;100023.63;6659197;26;34083;-89
2022/09/13 13:52:46;;;;;;;2.50;1.20;;;;;;;36.54;19.60;100025.66;6635467;26;33006;-87
2022/09/13 13:56:07;;;;;;;0.88;0.80;;;;;;;36.85;18.97;100026.81;6656422;26;33529;-86
2022/09/13 13:59:25;;;;;;;1.25;1.15;;;;;;;36.51;19.35;100037.59;6659923;26;33653;-86
2022/09/13 14:03:00;;;;;;;2.03;1.10;;;;;;;34.80;20.87;100034.09;6660527;26;33555;-86
2022/09/13 14:06:15;;;;;;;2.05;1.00;;;;;;;34.13;21.95;100027.78;6646197;26;35271;-85
2022/09/13 14:09:18;;;;;;;2.17;0.98;;;;;;;33.51;22.74;100014.69;6640664;26;33881;-85
2022/09/13 14:12:31;;;;;;;2.35;1.15;;;;;;;31.05;24.52;100011.22;6650054;26;32706;-86
2022/09/13 14:15:57;;;;;;;6.22;1.48;;;;;;;29.38;27.16;100024.41;6676417;26;34083;-85
2022/09/13 14:19:24;;;;;;;1.20;1.17;;;;;;;27.95;29.77;100027.97;6643914;26;33776;-85
2022/09/13 14:22:28;;;;;;;1.77;1.27;;;;;;;27.54;30.10;100022.25;6657991;26;33161;-87
2022/09/13 14:25:31;;;;;;;3.28;1.67;;;;;;;26.90;31.38;100011.47;6662052;26;35165;-89
2022/09/13 14:28:33;;;;;;;4.12;1.40;;;;;;;25.79;33.56;100008.69;6658524;26;33786;-91
2022/09/13 14:31:37;;;;;;;1.50;1.40;;;;;;;25.22;34.20;100013.78;6658422;26;35396;-91
2022/09/13 14:34:56;;;;;;;1.75;1.60;;;;;;;25.02;35.01;100009.16;6617527;26;34023;-87
2022/09/13 14:38:18;;;;;;;2.33;1.50;;;;;;;24.99;35.52;100008.91;6656811;26;34600;-87
2022/09/13 14:41:30;;;;;;;1.45;1.33;;;;;;;24.49;35.46;100005.25;6659709;26;34635;-87
2022/09/13 14:44:35;;;;;;;1.87;1.50;;;;;;;24.16;36.53;100004.69;6656627;26;32667;-86
2022/09/13 14:47:44;;;;;;;1.75;1.65;;;;;;;23.91;36.84;100003.63;6664349;26;35201;-86
2022/09/13 14:50:54;;;;;;;1.42;1.33;;;;;;;23.69;37.91;99987.38;6657434;26;32845;-87
2022/09/13 14:54:17;;;;;;;1.52;1.42;;;;;;;23.61;37.45;99990.69;6677391;26;34963;-87
2022/09/13 14:57:20;;;;;;;1.58;1.33;;;;;;;23.34;38.69;99993.63;6678589;26;35341;-87
2022/09/13 15:00:25;;;;;;;3.03;1.92;;;;;;;23.22;38.29;99982.09;6671149;26;37268;-87
2022/09/13 15:03:28;;;;;;;1.65;1.55;;;;;;;23.02;38.89;99982.84;6678866;26;34967;-87
2022/09/13 15:06:34;;;;;;;3.95;1.50;;;;;;;22.75;39.68;99983.00;6678125;26;34890;-87
2022/09/13 15:09:37;;;;;;;3.55;1.62;;;;;;;22.63;39.77;99984.03;6658185;26;33385;-87
2022/09/13 15:13:01;;;;;;;3.00;1.70;;;;;;;22.52;40.53;99973.28;6678741;26;34910;-87
2022/09/13 15:16:26;;;;;;;2.97;1.95;;;;;;;22.46;40.81;99977.91;6676356;26;35267;-87
2022/09/13 15:19:36;;;;;;;1.45;1.30;;;;;;;22.33;40.90;99971.00;6676679;26;34799;-90
2022/09/13 15:22:44;;;;;;;1.50;1.40;;;;;;;22.17;41.29;99970.09;6658845;26;34030;-87
2022/09/13 15:25:54;;;;;;;3.35;1.90;;;;;;;22.04;41.52;99962.28;6631602;26;33940;-87
2022/09/13 15:29:02;;;;;;;2.15;1.75;;;;;;;21.78;42.45;99969.50;6630368;26;35455;-87
2022/09/13 15:32:05;;;;;;;1.90;1.70;;;;;;;21.73;42.09;99961.22;6609364;26;32493;-87
2022/09/13 15:35:22;;;;;;;3.03;2.50;;;;;;;21.76;42.56;99976.31;6610124;26;32869;-87
2022/09/13 15:38:27;;;;;;;2.30;2.10;;;;;;;21.78;42.49;99964.03;6631025;26;34400;-87
2022/09/13 15:41:49;;;;;;;2.95;2.10;;;;;;;21.79;42.41;99954.72;6631066;26;35367;-87
2022/09/13 15:44:52;;;;;;;2.67;2.40;;;;;;;21.88;41.99;99963.25;6630348;26;34117;-87
2022/09/13 15:47:55;;;;;;;4.53;1.83;;;;;;;21.93;42.26;99964.13;6610688;26;32771;-87
2022/09/13 15:51:13;;;;;;;2.45;1.98;;;;;;;21.99;41.75;99961.44;6614183;26;32862;-87
2022/09/13 15:54:16;;;;;;;1.95;1.85;;;;;;;22.12;41.66;99963.72;6634453;26;33662;-87
2022/09/13 15:57:23;;;;;;;3.05;1.83;;;;;;;22.04;42.60;99959.56;6614127;26;32783;-87
2022/09/13 16:00:27;;;;;;;4.15;2.00;;;;;;;22.11;41.73;99962.91;6624370;26;33204;-88
2022/09/13 16:03:30;;;;;;;1.77;1.67;;;;;;;21.99;42.56;99954.03;6649301;26;35181;-87
2022/09/13 16:06:33;;;;;;;2.28;1.80;;;;;;;21.88;41.88;99949.56;6637205;26;34875;-87
2022/09/13 16:09:37;;;;;;;2.53;1.80;;;;;;;21.85;42.19;99942.72;6634259;26;34781;-87
2022/09/13 16:12:40;;;;;;;1.67;1.58;;;;;;;21.79;42.40;99935.53;6614459;26;32977;-87
2022/09/13 16:15:43;;;;;;;1.60;1.50;;;;;;;21.72;42.26;99937.66;6615881;26;32385;-88
2022/09/13 16:18:46;;;;;;;1.87;1.67;;;;;;;21.55;43.73;99935.06;6609626;26;34714;-88
2022/09/13 16:21:49;;;;;;;1.70;1.60;;;;;;;21.49;43.13;99933.37;6587904;27;33111;-87
2022/09/13 16:24:51;;;;;;;2.60;1.62;;;;;;;21.50;42.96;99932.31;6586536;27;32825;-88
2022/09/13 16:27:55;;;;;;;1.77;1.62;;;;;;;21.37;43.61;99933.53;6586476;27;32625;-88
2022/09/13 16:30:57;;;;;;;3.42;2.05;;;;;;;21.33;43.57;99929.66;6586985;27;34827;-88
2022/09/13 16:34:00;;;;;;;3.03;2.08;;;;;;;21.23;45.06;99933.09;6586547;27;35681;-91
2022/09/13 16:37:03;;;;;;;2.80;2.03;;;;;;;21.07;48.08;99928.56;6586493;27;32706;-93
2022/09/13 16:40:08;;;;;;;2.15;1.90;;;;;;;20.93;47.27;99922.66;6606334;27;34433;-91
2022/09/13 16:43:12;;;;;;;2.12;1.92;;;;;;;20.79;48.09;99935.09;6606170;27;33527;-89
2022/09/13 16:46:15;;;;;;;7.75;3.85;;;;;;;20.69;48.12;99930.34;6606464;27;33474;-89
